Time;durP1;ratioP1;P1;durP2;ratioP2;P2;SDS_P1;SDS_P2;PMS_P1;PMS_P2;Temp;Humidity;BMP_temperature;BMP_pressure;BME280_temperature;BME280_humidity;BME280_pressure;Samples;Min_cycle;Max_cycle;Signal;HPM_P1;HPM_P2
2023/07/07 00:01:52;;;;;;;2.10;1.48;;;25.30;43.80;;;;;;4978622;28;20037;-62
2023/07/07 00:04:18;;;;;;;2.60;1.63;;;25.20;43.70;;;;;;4981305;28;20420;-63
2023/07/07 00:06:44;;;;;;;2.25;1.60;;;25.30;43.80;;;;;;4978742;28;20027;-63
2023/07/07 00:09:09;;;;;;;2.63;1.50;;;25.30;43.80;;;;;;4975815;28;20253;-62
2023/07/07 00:11:35;;;;;;;2.10;1.48;;;25.30;43.80;;;;;;4979979;28;20505;-62
2023/07/07 00:14:01;;;;;;;2.30;1.40;;;25.30;43.80;;;;;;4979076;28;20475;-62
2023/07/07 00:16:27;;;;;;;2.35;1.55;;;25.30;43.80;;;;;;4979453;28;20153;-62
2023/07/07 00:18:58;;;;;;;2.40;1.48;;;25.20;43.80;;;;;;4978895;28;20050;-63
2023/07/07 00:21:25;;;;;;;1.67;1.30;;;25.30;43.80;;;;;;4977439;28;20110;-62
2023/07/07 00:24:00;;;;;;;1.98;1.50;;;25.30;43.80;;;;;;4969416;28;20532;-62
2023/07/07 00:26:25;;;;;;;2.20;1.50;;;25.30;43.80;;;;;;4977407;28;20038;-62
2023/07/07 00:28:51;;;;;;;1.90;1.40;;;25.30;43.80;;;;;;4975314;28;20058;-62
2023/07/07 00:31:20;;;;;;;2.08;1.48;;;25.20;43.70;;;;;;4976231;28;20064;-61
2023/07/07 00:33:46;;;;;;;2.42;1.50;;;25.30;43.80;;;;;;4977640;28;20022;-62
2023/07/07 00:36:12;;;;;;;2.10;1.45;;;25.20;43.70;;;;;;4977562;28;20395;-62
2023/07/07 00:38:38;;;;;;;2.80;1.70;;;25.30;43.80;;;;;;4980419;28;20033;-62
2023/07/07 00:41:05;;;;;;;2.15;1.50;;;25.20;43.70;;;;;;4978922;28;20525;-62
2023/07/07 00:43:31;;;;;;;2.22;1.60;;;25.30;43.80;;;;;;4977955;28;20482;-63
2023/07/07 00:45:58;;;;;;;2.10;1.40;;;25.20;43.70;;;;;;4977414;28;20042;-63
2023/07/07 00:48:32;;;;;;;1.90;1.40;;;25.20;43.70;;;;;;4980151;28;20579;-62
2023/07/07 00:51:03;;;;;;;2.22;1.52;;;25.30;43.80;;;;;;4967893;28;20597;-62
2023/07/07 00:53:30;;;;;;;2.20;1.50;;;25.20;43.70;;;;;;4978854;28;20026;-62
2023/07/07 00:56:00;;;;;;;2.13;1.50;;;25.20;43.70;;;;;;4977944;28;20502;-63
2023/07/07 00:58:26;;;;;;;2.05;1.50;;;25.20;43.80;;;;;;4963028;28;20034;-62
2023/07/07 01:01:01;;;;;;;2.42;1.45;;;25.20;43.80;;;;;;4965843;28;20030;-62
2023/07/07 01:03:32;;;;;;;1.95;1.42;;;25.20;43.80;;;;;;4980846;28;20447;-62
2023/07/07 01:06:01;;;;;;;2.50;1.55;;;25.20;43.80;;;;;;4981715;28;20118;-62
2023/07/07 01:08:27;;;;;;;1.95;1.30;;;25.20;43.80;;;;;;4982070;28;20027;-62
2023/07/07 01:10:53;;;;;;;2.20;1.48;;;25.20;43.70;;;;;;4982995;28;20119;-62
2023/07/07 01:13:18;;;;;;;2.47;1.48;;;25.20;43.80;;;;;;4983507;28;20532;-62
2023/07/07 01:16:22;;;;;;;1.95;1.50;;;25.20;43.80;;;;;;4980511;28;20148;-62
2023/07/07 01:19:15;;;;;;;2.10;1.42;;;25.20;43.80;;;;;;4954208;28;20057;-61
2023/07/07 01:21:45;;;;;;;2.15;1.60;;;25.20;43.80;;;;;;4980398;28;20037;-63
2023/07/07 01:24:18;;;;;;;2.35;1.50;;;25.20;43.80;;;;;;4982601;28;20076;-63
2023/07/07 01:27:02;;;;;;;2.28;1.50;;;25.20;43.80;;;;;;4982050;28;20408;-63
2023/07/07 01:29:38;;;;;;;2.13;1.50;;;25.20;43.80;;;;;;4982324;28;20027;-62
2023/07/07 01:32:18;;;;;;;2.03;1.50;;;25.20;43.80;;;;;;4978436;28;20486;-63
2023/07/07 01:34:46;;;;;;;2.03;1.40;;;25.20;43.80;;;;;;4980687;28;20026;-63
2023/07/07 01:37:12;;;;;;;2.30;1.60;;;25.20;43.80;;;;;;4981511;28;20081;-63
2023/07/07 01:39:39;;;;;;;2.05;1.40;;;25.20;43.80;;;;;;4981351;28;20040;-63
2023/07/07 01:42:17;;;;;;;2.20;1.58;;;25.20;43.80;;;;;;4980371;28;20065;-62
2023/07/07 01:45:03;;;;;;;2.22;1.50;;;25.20;43.80;;;;;;4981109;28;20102;-63
2023/07/07 01:47:34;;;;;;;2.10;1.40;;;25.20;43.80;;;;;;4970056;28;20528;-63
2023/07/07 01:50:03;;;;;;;2.13;1.48;;;25.10;44.30;;;;;;4981113;28;20049;-63
2023/07/07 01:52:34;;;;;;;;;;;25.20;43.80;;;;;;4981451;28;20072;-64
2023/07/07 01:55:25;;;;;;;2.08;1.40;;;25.20;43.80;;;;;;4980368;28;19989;-64
2023/07/07 01:57:56;;;;;;;2.28;1.52;;;25.20;43.80;;;;;;4981323;28;20022;-62
2023/07/07 02:00:23;;;;;;;2.30;1.50;;;25.20;43.80;;;;;;4983544;28;20808;-64
2023/07/07 02:02:51;;;;;;;2.15;1.42;;;25.20;43.80;;;;;;4980687;28;20050;-64
2023/07/07 02:05:16;;;;;;;2.40;1.55;;;25.10;43.70;;;;;;4964819;28;20486;-65
2023/07/07 02:07:42;;;;;;;1.98;1.38;;;25.10;43.80;;;;;;4982486;28;20037;-64
2023/07/07 02:10:08;;;;;;;1.92;1.48;;;25.10;43.80;;;;;;4979856;28;20443;-64
2023/07/07 02:12:34;;;;;;;2.25;1.50;;;25.10;43.80;;;;;;4982362;28;20026;-64
2023/07/07 02:14:59;;;;;;;2.75;1.60;;;25.10;43.80;;;;;;4981128;28;20029;-64
2023/07/07 02:17:28;;;;;;;1.98;1.48;;;25.10;43.80;;;;;;4979865;28;20022;-64
2023/07/07 02:19:55;;;;;;;3.20;1.60;;;25.10;43.80;;;;;;4980148;28;20031;-64
2023/07/07 02:22:21;;;;;;;1.80;1.30;;;25.10;43.80;;;;;;4981308;28;20561;-64
2023/07/07 02:24:46;;;;;;;2.10;1.50;;;25.10;43.80;;;;;;4980310;28;20098;-64
2023/07/07 02:27:12;;;;;;;1.88;1.30;;;25.10;43.80;;;;;;4980161;28;20030;-64
2023/07/07 02:29:38;;;;;;;1.70;1.20;;;25.10;43.80;;;;;;4981931;28;20026;-64
2023/07/07 02:32:05;;;;;;;1.77;1.27;;;25.10;43.80;;;;;;4980166;28;20043;-62
2023/07/07 02:34:31;;;;;;;2.03;1.42;;;25.10;43.80;;;;;;4981754;28;20183;-63
2023/07/07 02:36:57;;;;;;;1.95;1.33;;;25.10;43.80;;;;;;4979866;28;20455;-63
2023/07/07 02:39:23;;;;;;;2.10;1.60;;;25.10;43.80;;;;;;4965437;28;20026;-62
2023/07/07 02:41:49;;;;;;;1.88;1.33;;;25.10;43.80;;;;;;4982269;28;20088;-65
2023/07/07 02:44:16;;;;;;;1.80;1.30;;;25.10;43.80;;;;;;4963422;28;20487;-63
2023/07/07 02:46:42;;;;;;;2.28;1.58;;;25.10;43.80;;;;;;4980092;28;20094;-63
2023/07/07 02:49:07;;;;;;;1.77;1.38;;;25.10;43.80;;;;;;4979587;28;20068;-63
2023/07/07 02:51:33;;;;;;;1.38;1.17;;;25.10;43.80;;;;;;4982727;28;20030;-63
2023/07/07 02:53:58;;;;;;;1.80;1.27;;;25.10;43.80;;;;;;4980790;28;20581;-64
2023/07/07 02:56:24;;;;;;;2.15;1.48;;;25.10;43.80;;;;;;4971256;28;20041;-63
2023/07/07 02:58:50;;;;;;;2.10;1.50;;;25.10;43.80;;;;;;4979003;28;20487;-63
2023/07/07 03:01:17;;;;;;;1.88;1.30;;;25.10;43.80;;;;;;4979136;28;20145;-64
2023/07/07 03:03:45;;;;;;;2.20;1.40;;;25.10;43.80;;;;;;4978667;28;20039;-63
2023/07/07 03:06:15;;;;;;;2.10;1.40;;;25.10;44.40;;;;;;4981164;28;20065;-63
2023/07/07 03:08:41;;;;;;;2.00;1.40;;;25.10;43.80;;;;;;4981011;28;20019;-63
2023/07/07 03:11:10;;;;;;;2.05;1.50;;;25.10;43.80;;;;;;4977280;28;20061;-63
2023/07/07 03:13:36;;;;;;;2.53;1.60;;;25.10;43.90;;;;;;4981107;28;20454;-63
2023/07/07 03:16:20;;;;;;;1.90;1.30;;;25.10;43.80;;;;;;4980711;28;20022;-63
2023/07/07 03:18:51;;;;;;;1.90;1.30;;;25.10;43.80;;;;;;4979452;28;20072;-64
2023/07/07 03:21:18;;;;;;;2.05;1.52;;;25.10;43.90;;;;;;4979173;28;20034;-63
2023/07/07 03:23:44;;;;;;;2.10;1.50;;;25.10;43.90;;;;;;4978650;28;20458;-63
2023/07/07 03:26:15;;;;;;;1.80;1.40;;;25.10;43.90;;;;;;4981333;28;20136;-66
2023/07/07 03:28:42;;;;;;;1.60;1.30;;;25.10;43.90;;;;;;4978937;28;20029;-65
2023/07/07 03:31:23;;;;;;;2.30;1.40;;;25.00;43.80;;;;;;4979959;28;20057;-65
2023/07/07 03:33:51;;;;;;;2.22;1.40;;;25.00;43.80;;;;;;4977432;28;20027;-66
2023/07/07 03:36:20;;;;;;;1.50;1.20;;;25.00;43.80;;;;;;4977949;28;20032;-65
2023/07/07 03:38:46;;;;;;;2.30;1.30;;;25.00;43.80;;;;;;4980661;28;20046;-65
2023/07/07 03:41:15;;;;;;;2.10;1.40;;;25.00;43.80;;;;;;4980061;28;20341;-65
2023/07/07 03:43:45;;;;;;;1.73;1.20;;;25.00;43.80;;;;;;4978623;28;20026;-65
2023/07/07 03:46:17;;;;;;;;;;;25.00;43.80;;;;;;4978497;28;20031;-65
2023/07/07 03:48:45;;;;;;;1.50;1.20;;;25.00;43.80;;;;;;4979678;28;19956;-65
2023/07/07 03:51:12;;;;;;;1.77;1.33;;;25.00;43.80;;;;;;4979402;28;20030;-65
2023/07/07 03:53:38;;;;;;;1.80;1.35;;;25.00;43.80;;;;;;4980117;28;20585;-65
2023/07/07 03:56:05;;;;;;;1.60;1.20;;;25.00;43.80;;;;;;4980472;28;20118;-65
2023/07/07 03:58:31;;;;;;;1.70;1.30;;;25.00;43.80;;;;;;4977603;28;20062;-66
2023/07/07 04:01:01;;;;;;;1.65;1.30;;;25.00;43.80;;;;;;4980299;28;20564;-65
2023/07/07 04:03:27;;;;;;;2.45;1.50;;;25.00;43.90;;;;;;4976272;28;20083;-65
2023/07/07 04:05:54;;;;;;;1.98;1.30;;;25.00;43.90;;;;;;4980037;28;20531;-65
2023/07/07 04:08:23;;;;;;;2.33;1.40;;;25.00;43.90;;;;;;4979261;28;20031;-65
2023/07/07 04:11:06;;;;;;;1.83;1.30;;;25.00;43.90;;;;;;4978138;28;20077;-65
2023/07/07 04:13:36;;;;;;;1.98;1.40;;;25.00;43.80;;;;;;4965231;28;20050;-65
2023/07/07 04:16:09;;;;;;;1.90;1.30;;;25.00;44.40;;;;;;4978565;28;20550;-65
2023/07/07 04:18:36;;;;;;;1.75;1.40;;;25.00;43.90;;;;;;4978043;28;20057;-65
2023/07/07 04:21:07;;;;;;;1.98;1.42;;;25.00;43.90;;;;;;4979320;28;20121;-65
2023/07/07 04:23:35;;;;;;;1.73;1.40;;;25.00;43.90;;;;;;4979245;28;21009;-65
2023/07/07 04:26:01;;;;;;;2.25;1.42;;;25.00;43.90;;;;;;4978192;28;20129;-65
2023/07/07 04:28:29;;;;;;;2.03;1.40;;;24.90;43.90;;;;;;4977407;28;20441;-65
2023/07/07 04:30:56;;;;;;;2.10;1.42;;;25.00;43.90;;;;;;4978221;28;20478;-65
2023/07/07 04:33:23;;;;;;;1.42;1.15;;;24.90;43.80;;;;;;4973979;28;20034;-65
2023/07/07 04:35:57;;;;;;;2.45;1.65;;;24.90;43.90;;;;;;4979093;28;20432;-65
2023/07/07 04:38:30;;;;;;;2.20;1.50;;;24.90;43.80;;;;;;4964383;28;20475;-65
2023/07/07 04:41:04;;;;;;;2.20;1.40;;;24.90;43.80;;;;;;4977652;28;20022;-65
2023/07/07 04:43:30;;;;;;;1.95;1.30;;;24.90;43.80;;;;;;4978975;28;20493;-65
2023/07/07 04:45:56;;;;;;;1.98;1.40;;;24.90;43.90;;;;;;4978396;28;20571;-65
2023/07/07 04:48:22;;;;;;;2.00;1.50;;;24.90;43.80;;;;;;4977750;28;20106;-65
2023/07/07 04:50:47;;;;;;;2.20;1.60;;;24.90;43.80;;;;;;4977491;28;20030;-65
2023/07/07 04:53:13;;;;;;;1.98;1.35;;;24.90;43.80;;;;;;4978128;28;20435;-65
2023/07/07 04:55:45;;;;;;;2.10;1.35;;;24.90;43.80;;;;;;4978794;28;20093;-65
2023/07/07 04:58:11;;;;;;;2.15;1.50;;;24.90;43.80;;;;;;4976754;28;20050;-65
2023/07/07 05:00:36;;;;;;;1.90;1.33;;;24.90;43.80;;;;;;4978327;28;20062;-66
2023/07/07 05:03:04;;;;;;;1.90;1.30;;;24.90;43.80;;;;;;4963069;28;20487;-65
2023/07/07 05:05:29;;;;;;;2.30;1.60;;;24.90;43.80;;;;;;4963118;28;20363;-66
2023/07/07 05:07:55;;;;;;;2.15;1.52;;;24.90;43.80;;;;;;4977974;28;20023;-65
2023/07/07 05:10:21;;;;;;;2.03;1.40;;;24.90;43.90;;;;;;4983136;28;20022;-64
2023/07/07 05:12:46;;;;;;;1.83;1.35;;;24.90;44.00;;;;;;4981827;28;20105;-65
2023/07/07 05:15:12;;;;;;;1.98;1.40;;;24.90;44.00;;;;;;4984000;28;20041;-68
2023/07/07 05:17:37;;;;;;;2.45;1.30;;;24.90;44.00;;;;;;4973311;28;20050;-65
2023/07/07 05:20:04;;;;;;;3.17;1.50;;;24.90;44.00;;;;;;4967084;28;20567;-64
2023/07/07 05:22:29;;;;;;;2.33;1.58;;;24.90;44.00;;;;;;4983077;28;20026;-64
2023/07/07 05:24:55;;;;;;;1.90;1.35;;;24.90;43.90;;;;;;4982106;28;20030;-65
2023/07/07 05:27:20;;;;;;;2.28;1.52;;;25.00;44.00;;;;;;4982657;28;20031;-66
2023/07/07 05:29:49;;;;;;;1.90;1.50;;;25.00;44.00;;;;;;4980543;28;20477;-64
2023/07/07 05:32:14;;;;;;;2.72;1.60;;;25.00;44.00;;;;;;4980449;28;20548;-65
2023/07/07 05:34:40;;;;;;;1.80;1.30;;;25.00;43.90;;;;;;4976238;28;20018;-65
2023/07/07 05:37:05;;;;;;;2.38;1.23;;;25.00;44.50;;;;;;4978370;28;20038;-65
2023/07/07 05:39:31;;;;;;;1.90;1.20;;;25.00;44.00;;;;;;4969480;28;20029;-65
2023/07/07 05:41:57;;;;;;;2.13;1.40;;;25.00;43.90;;;;;;4977228;28;20042;-66
2023/07/07 05:44:22;;;;;;;2.00;1.42;;;25.10;44.00;;;;;;4978779;28;20505;-66
2023/07/07 05:46:48;;;;;;;2.33;1.30;;;25.10;43.90;;;;;;4980218;28;20033;-67
2023/07/07 05:49:13;;;;;;;2.08;1.40;;;25.10;44.10;;;;;;4980205;28;20490;-66
2023/07/07 05:51:39;;;;;;;2.00;1.50;;;25.10;44.00;;;;;;4981860;28;20361;-66
2023/07/07 05:54:04;;;;;;;2.20;1.50;;;25.10;43.90;;;;;;4980613;28;20026;-66
2023/07/07 05:56:30;;;;;;;2.50;1.58;;;25.10;44.00;;;;;;4982228;28;20096;-67
2023/07/07 05:58:56;;;;;;;2.20;1.50;;;25.20;43.90;;;;;;4972891;28;20040;-66
2023/07/07 06:01:23;;;;;;;2.05;1.40;;;25.20;43.90;;;;;;4982027;28;20030;-66
2023/07/07 06:03:48;;;;;;;1.80;1.30;;;25.20;43.80;;;;;;4969428;28;20030;-65
2023/07/07 06:06:14;;;;;;;3.40;1.70;;;25.20;43.80;;;;;;4966703;28;20049;-67
2023/07/07 06:08:40;;;;;;;2.22;1.70;;;25.20;43.80;;;;;;4980451;28;20030;-67
2023/07/07 06:11:06;;;;;;;2.08;1.55;;;25.30;43.90;;;;;;4981283;28;20489;-67
2023/07/07 06:13:32;;;;;;;2.42;1.60;;;25.30;43.80;;;;;;4982582;28;20019;-66
2023/07/07 06:15:58;;;;;;;2.08;1.30;;;25.30;43.80;;;;;;4982303;28;20541;-67
2023/07/07 06:18:24;;;;;;;2.53;1.70;;;25.30;43.70;;;;;;4980192;28;20146;-65
2023/07/07 06:20:51;;;;;;;2.75;1.55;;;25.30;43.80;;;;;;4980966;28;20269;-66
2023/07/07 06:23:17;;;;;;;3.92;1.60;;;25.30;43.70;;;;;;4980154;28;20040;-66
2023/07/07 06:25:42;;;;;;;1.77;1.23;;;25.30;43.70;;;;;;4982270;28;20027;-64
2023/07/07 06:28:08;;;;;;;2.15;1.50;;;25.40;44.40;;;;;;4980917;28;20300;-68
2023/07/07 06:30:34;;;;;;;2.08;1.42;;;25.40;44.10;;;;;;4979454;28;20064;-66
2023/07/07 06:33:02;;;;;;;2.03;1.40;;;25.40;44.00;;;;;;4978147;28;20114;-66
2023/07/07 06:35:29;;;;;;;2.45;1.50;;;25.40;44.00;;;;;;4976936;28;20038;-65
2023/07/07 06:37:54;;;;;;;2.70;1.20;;;25.40;44.20;;;;;;4981374;28;20611;-66
2023/07/07 06:40:20;;;;;;;1.95;1.42;;;25.40;44.30;;;;;;4972077;28;20030;-64
2023/07/07 06:42:48;;;;;;;4.05;1.48;;;25.40;44.10;;;;;;4979604;28;20064;-65
2023/07/07 06:45:13;;;;;;;2.83;1.55;;;25.40;44.20;;;;;;4981039;28;20026;-65
2023/07/07 06:47:39;;;;;;;2.10;1.40;;;25.40;44.30;;;;;;4979174;28;20395;-69
2023/07/07 06:50:05;;;;;;;1.98;1.30;;;25.50;44.50;;;;;;4978350;28;20042;-67
2023/07/07 06:52:31;;;;;;;1.90;1.42;;;25.50;44.50;;;;;;4981136;28;20029;-64
2023/07/07 06:54:57;;;;;;;2.25;1.63;;;25.50;44.50;;;;;;4981132;28;20018;-65
2023/07/07 06:57:23;;;;;;;1.83;1.30;;;25.50;44.20;;;;;;4964048;28;20125;-66
2023/07/07 06:59:48;;;;;;;2.47;1.42;;;25.50;44.30;;;;;;4966764;28;20107;-63
2023/07/07 07:02:14;;;;;;;2.88;1.58;;;25.50;44.30;;;;;;4979691;28;20114;-66
2023/07/07 07:04:40;;;;;;;2.03;1.48;;;25.50;44.40;;;;;;4978555;28;20086;-65
2023/07/07 07:07:08;;;;;;;2.60;1.70;;;25.60;44.40;;;;;;4980192;28;20118;-65
2023/07/07 07:09:34;;;;;;;2.35;1.63;;;25.60;44.40;;;;;;4980066;28;20031;-65
2023/07/07 07:12:00;;;;;;;2.25;1.58;;;25.60;44.30;;;;;;4982179;28;20534;-65
2023/07/07 07:14:25;;;;;;;2.75;1.60;;;25.60;44.30;;;;;;4981749;28;20346;-65
2023/07/07 07:16:51;;;;;;;2.83;1.70;;;25.60;44.20;;;;;;4979423;28;20392;-65
2023/07/07 07:19:16;;;;;;;2.50;1.60;;;25.60;44.20;;;;;;4978498;28;20129;-67
2023/07/07 07:21:42;;;;;;;2.50;1.80;;;25.70;44.30;;;;;;4979623;28;20475;-65
2023/07/07 07:24:08;;;;;;;2.30;1.70;;;25.70;44.30;;;;;;4981500;28;20027;-66
2023/07/07 07:26:33;;;;;;;1.95;1.63;;;25.70;44.30;;;;;;4981473;28;20470;-64
2023/07/07 07:28:59;;;;;;;2.72;1.70;;;25.70;44.20;;;;;;4978113;28;20034;-64
2023/07/07 07:31:26;;;;;;;2.30;1.60;;;25.70;44.90;;;;;;4980039;28;20117;-65
2023/07/07 07:33:54;;;;;;;2.67;1.90;;;25.70;44.50;;;;;;4965041;28;20134;-70
2023/07/07 07:36:20;;;;;;;2.40;1.60;;;25.70;44.40;;;;;;4976620;28;20061;-66
2023/07/07 07:38:47;;;;;;;2.38;1.85;;;25.70;44.50;;;;;;4962116;28;20058;-65
2023/07/07 07:41:13;;;;;;;2.42;1.70;;;25.70;44.50;;;;;;4980900;28;20038;-64
2023/07/07 07:43:38;;;;;;;2.33;1.70;;;25.70;44.50;;;;;;4979259;28;20375;-66
2023/07/07 07:46:04;;;;;;;2.47;1.80;;;25.70;44.40;;;;;;4977997;28;20042;-66
2023/07/07 07:48:29;;;;;;;2.50;1.60;;;25.70;44.60;;;;;;4977748;28;20035;-65
2023/07/07 07:50:55;;;;;;;2.50;1.90;;;25.70;44.70;;;;;;4969328;28;20062;-64
2023/07/07 07:53:22;;;;;;;2.78;1.90;;;25.70;44.40;;;;;;4983722;28;20058;-63
2023/07/07 07:55:48;;;;;;;3.05;1.83;;;25.80;44.50;;;;;;4972321;28;20117;-65
2023/07/07 07:58:13;;;;;;;2.30;1.80;;;25.80;44.50;;;;;;4986544;28;20494;-65
2023/07/07 08:00:39;;;;;;;2.60;1.65;;;25.80;44.40;;;;;;4977351;28;20744;-66
2023/07/07 08:03:05;;;;;;;2.22;1.42;;;25.80;44.40;;;;;;4981679;28;20431;-65
2023/07/07 08:05:31;;;;;;;2.50;1.67;;;25.80;44.40;;;;;;4963110;28;20034;-67
2023/07/07 08:07:57;;;;;;;2.75;1.85;;;25.80;44.40;;;;;;4974476;28;20023;-64
2023/07/07 08:10:23;;;;;;;3.25;2.17;;;25.80;44.40;;;;;;4985543;28;20166;-65
2023/07/07 08:12:49;;;;;;;2.60;1.70;;;25.90;44.40;;;;;;4985912;28;20606;-63
2023/07/07 08:15:14;;;;;;;2.90;2.00;;;25.80;44.90;;;;;;4985994;28;20034;-64
2023/07/07 08:17:40;;;;;;;2.40;1.73;;;25.90;44.40;;;;;;4968366;28;20448;-64
2023/07/07 08:20:11;;;;;;;2.78;1.90;;;25.90;44.40;;;;;;4972840;28;20093;-66
2023/07/07 08:22:36;;;;;;;3.15;2.10;;;25.90;44.40;;;;;;4983419;28;20480;-66
2023/07/07 08:25:02;;;;;;;2.50;1.80;;;25.90;44.40;;;;;;4986233;28;20022;-65
2023/07/07 08:27:28;;;;;;;2.90;1.95;;;25.90;44.30;;;;;;4985287;28;20058;-65
2023/07/07 08:29:53;;;;;;;2.83;2.10;;;25.90;44.30;;;;;;4984632;28;20081;-64
2023/07/07 08:32:22;;;;;;;2.80;2.00;;;26.00;44.90;;;;;;4980623;28;20054;-64
2023/07/07 08:34:49;;;;;;;2.40;1.92;;;26.00;44.30;;;;;;4981148;28;20022;-66
2023/07/07 08:37:17;;;;;;;3.10;2.20;;;26.00;44.30;;;;;;4979869;28;20034;-65
2023/07/07 08:39:44;;;;;;;3.22;2.20;;;26.00;44.30;;;;;;4972701;28;20031;-65
2023/07/07 08:42:23;;;;;;;2.78;2.10;;;26.00;44.30;;;;;;4982961;28;20053;-65
2023/07/07 08:44:49;;;;;;;2.88;1.98;;;26.00;44.30;;;;;;4982222;28;20054;-67
2023/07/07 08:47:32;;;;;;;2.92;2.05;;;26.00;44.20;;;;;;4983848;28;20080;-65
2023/07/07 08:50:06;;;;;;;2.72;1.90;;;26.00;44.30;;;;;;4959174;28;20467;-65
2023/07/07 08:52:49;;;;;;;3.13;2.25;;;26.00;44.20;;;;;;4962089;28;20118;-66
2023/07/07 08:55:35;;;;;;;2.75;2.00;;;26.10;44.30;;;;;;4976693;28;20029;-67
2023/07/07 08:58:20;;;;;;;2.67;2.10;;;26.10;44.30;;;;;;4961298;28;20483;-66
2023/07/07 09:01:09;;;;;;;2.92;2.05;;;26.10;44.30;;;;;;4977546;28;20035;-66
2023/07/07 09:03:53;;;;;;;;;;;26.10;44.20;;;;;;4980789;28;20066;-67
2023/07/07 09:06:36;;;;;;;2.70;1.70;;;26.10;44.30;;;;;;4978077;28;19914;-65
2023/07/07 09:09:23;;;;;;;2.80;2.00;;;26.10;44.30;;;;;;4982216;28;20041;-65
2023/07/07 09:12:26;;;;;;;3.33;2.10;;;26.10;44.30;;;;;;4981650;28;20458;-65
2023/07/07 09:14:55;;;;;;;3.55;2.10;;;26.10;44.30;;;;;;4980034;28;20164;-65
2023/07/07 09:17:29;;;;;;;3.35;1.90;;;26.10;44.20;;;;;;4980539;28;20458;-66
2023/07/07 09:19:56;;;;;;;2.50;1.65;;;26.10;44.20;;;;;;4976592;28;20059;-64
2023/07/07 09:22:55;;;;;;;3.33;1.75;;;26.10;44.40;;;;;;4982890;28;20031;-64
2023/07/07 09:25:37;;;;;;;2.55;1.80;;;26.10;44.30;;;;;;4955889;28;20085;-65
2023/07/07 09:28:08;;;;;;;2.80;1.80;;;26.10;44.40;;;;;;4969842;28;20118;-64
2023/07/07 09:30:47;;;;;;;2.55;1.88;;;26.10;44.40;;;;;;4982073;28;20045;-65
2023/07/07 09:33:16;;;;;;;3.67;2.55;;;26.10;44.30;;;;;;4968255;28;20390;-65
2023/07/07 09:36:05;;;;;;;2.67;1.60;;;26.10;44.40;;;;;;4980744;28;20482;-64
2023/07/07 09:38:30;;;;;;;2.40;1.80;;;26.10;44.50;;;;;;4965406;28;20047;-65
2023/07/07 09:41:14;;;;;;;2.30;1.60;;;26.10;44.40;;;;;;4984208;28;20434;-63
2023/07/07 09:44:01;;;;;;;2.17;1.63;;;26.10;44.40;;;;;;4971724;28;20081;-65
2023/07/07 09:46:34;;;;;;;2.42;1.73;;;26.10;44.70;;;;;;4971498;28;20034;-65
2023/07/07 09:49:21;;;;;;;2.30;1.52;;;26.20;44.70;;;;;;4982308;28;20011;-66
2023/07/07 09:51:55;;;;;;;2.70;1.88;;;26.20;44.50;;;;;;4981420;28;20144;-64
2023/07/07 09:54:22;;;;;;;2.90;1.80;;;26.20;44.50;;;;;;4973014;28;20471;-65
2023/07/07 09:57:01;;;;;;;2.70;1.90;;;26.20;44.40;;;;;;4982788;28;20114;-66
2023/07/07 09:59:33;;;;;;;2.53;1.70;;;26.20;44.50;;;;;;4982277;28;20069;-65
2023/07/07 10:01:59;;;;;;;3.03;1.90;;;26.20;44.50;;;;;;4980063;28;20077;-66
2023/07/07 10:04:29;;;;;;;2.63;1.90;;;26.20;44.40;;;;;;4982410;28;20120;-65
2023/07/07 10:07:01;;;;;;;2.90;2.00;;;26.30;44.30;;;;;;4979481;28;20459;-63
2023/07/07 10:09:28;;;;;;;2.65;1.90;;;26.30;44.30;;;;;;4983323;28;20023;-65
2023/07/07 10:11:55;;;;;;;2.78;1.90;;;26.30;44.40;;;;;;4979576;28;20057;-64
2023/07/07 10:14:24;;;;;;;3.08;1.90;;;26.30;44.40;;;;;;4982478;28;20153;-66
2023/07/07 10:17:08;;;;;;;2.47;1.88;;;26.30;44.50;;;;;;4965893;28;20031;-63
2023/07/07 10:19:39;;;;;;;2.45;1.88;;;26.30;44.40;;;;;;4982106;28;20469;-65
2023/07/07 10:22:05;;;;;;;2.60;1.90;;;26.30;44.30;;;;;;4979391;28;20506;-64
2023/07/07 10:24:30;;;;;;;2.47;1.63;;;26.30;44.50;;;;;;4966164;28;20031;-66
2023/07/07 10:26:57;;;;;;;3.75;1.67;;;26.30;44.70;;;;;;4981073;28;20066;-65
2023/07/07 10:29:28;;;;;;;3.10;1.60;;;26.30;44.90;;;;;;4978880;28;20445;-67
2023/07/07 10:31:54;;;;;;;2.63;1.83;;;26.40;44.90;;;;;;4980354;28;20034;-65
2023/07/07 10:34:40;;;;;;;2.80;2.10;;;26.40;44.60;;;;;;4981077;28;20109;-64
2023/07/07 10:37:18;;;;;;;2.22;1.70;;;26.40;44.60;;;;;;4978601;28;20039;-64
2023/07/07 10:39:48;;;;;;;2.40;1.70;;;26.40;44.60;;;;;;4980610;28;20027;-66
2023/07/07 10:42:13;;;;;;;2.53;1.67;;;26.40;44.80;;;;;;4980747;28;20034;-65
2023/07/07 10:44:39;;;;;;;2.83;1.67;;;26.40;44.80;;;;;;4979713;28;20027;-66
2023/07/07 10:47:05;;;;;;;2.33;1.70;;;26.40;45.00;;;;;;4981406;28;20120;-64
2023/07/07 10:49:31;;;;;;;2.75;2.00;;;26.50;44.80;;;;;;4980390;28;20035;-66
2023/07/07 10:52:12;;;;;;;2.92;1.80;;;26.50;44.70;;;;;;4979909;28;20456;-65
2023/07/07 10:54:56;;;;;;;2.53;1.73;;;26.50;45.20;;;;;;4980159;28;20487;-66
2023/07/07 10:57:39;;;;;;;4.00;2.10;;;26.40;44.70;;;;;;4964770;28;20473;-67
2023/07/07 11:00:38;;;;;;;4.50;1.90;;;26.50;45.00;;;;;;4981244;28;20549;-67
2023/07/07 11:03:48;;;;;;;2.40;1.50;;;26.50;44.90;;;;;;4978567;28;20131;-66
2023/07/07 11:06:26;;;;;;;2.80;1.73;;;26.50;44.90;;;;;;4979154;28;20123;-67
2023/07/07 11:09:22;;;;;;;2.53;1.60;;;26.50;44.70;;;;;;4966950;28;20030;-67
2023/07/07 11:12:11;;;;;;;2.40;1.60;;;26.50;44.70;;;;;;4978991;28;20034;-66
2023/07/07 11:14:45;;;;;;;3.95;1.75;;;26.50;44.70;;;;;;4944185;28;20038;-69
2023/07/07 11:17:33;;;;;;;3.63;1.83;;;26.50;44.70;;;;;;4979302;28;20457;-68
2023/07/07 11:20:16;;;;;;;2.63;1.73;;;26.50;44.70;;;;;;4980572;28;20041;-66
2023/07/07 11:23:20;;;;;;;3.40;1.85;;;26.50;44.90;;;;;;4979433;28;20031;-66
2023/07/07 11:25:56;;;;;;;2.63;1.88;;;26.50;45.00;;;;;;4872641;29;20082;-66
2023/07/07 11:28:42;;;;;;;2.88;1.70;;;26.50;45.00;;;;;;4873719;29;20036;-66
2023/07/07 11:31:42;;;;;;;2.20;1.50;;;26.50;45.00;;;;;;4929106;28;20038;-67
2023/07/07 11:34:13;;;;;;;2.50;1.73;;;26.50;45.00;;;;;;4981316;28;20030;-68
2023/07/07 11:37:23;;;;;;;3.00;2.05;;;26.60;45.40;;;;;;4977717;28;20442;-68
2023/07/07 11:40:26;;;;;;;3.10;2.00;;;26.50;45.50;;;;;;4980316;28;20104;-67
2023/07/07 11:43:19;;;;;;;3.03;1.90;;;26.60;45.60;;;;;;4978061;28;20395;-71
2023/07/07 11:46:19;;;;;;;3.97;1.83;;;26.60;45.50;;;;;;4977708;28;20047;-69
2023/07/07 11:49:19;;;;;;;3.65;2.00;;;26.60;45.70;;;;;;4967267;28;20045;-68
2023/07/07 11:52:09;;;;;;;2.17;1.63;;;26.60;46.40;;;;;;4952536;28;20089;-67
2023/07/07 11:54:57;;;;;;;2.50;1.67;;;26.60;45.90;;;;;;4979784;28;20609;-67
2023/07/07 11:57:55;;;;;;;2.60;1.90;;;26.60;45.70;;;;;;4976640;28;20058;-67
2023/07/07 12:00:49;;;;;;;2.88;1.85;;;26.60;45.60;;;;;;4969211;28;20546;-66
2023/07/07 12:03:37;;;;;;;2.92;1.65;;;26.60;45.80;;;;;;4966499;28;20039;-66
2023/07/07 12:06:21;;;;;;;3.05;1.73;;;26.60;46.10;;;;;;4978912;28;20030;-69
2023/07/07 12:09:13;;;;;;;5.72;1.70;;;26.60;45.80;;;;;;4977889;28;20437;-67
2023/07/07 12:11:43;;;;;;;2.67;1.63;;;26.60;46.10;;;;;;4938316;28;20085;-66
2023/07/07 12:14:27;;;;;;;4.53;1.90;;;26.60;45.90;;;;;;4980065;28;20486;-66
2023/07/07 12:16:54;;;;;;;4.45;1.90;;;26.60;45.80;;;;;;4978711;28;20034;-66
2023/07/07 12:19:33;;;;;;;3.22;1.80;;;26.60;45.90;;;;;;4979548;28;20471;-69
2023/07/07 12:22:02;;;;;;;6.07;2.20;;;26.60;46.10;;;;;;4979108;28;20037;-66
2023/07/07 12:24:38;;;;;;;5.18;1.80;;;26.70;46.50;;;;;;4978881;28;20281;-66
2023/07/07 12:27:16;;;;;;;3.67;1.92;;;26.70;46.30;;;;;;4978995;28;20134;-68
2023/07/07 12:29:44;;;;;;;3.53;1.98;;;26.70;47.40;;;;;;4980524;28;20034;-66
2023/07/07 12:32:09;;;;;;;2.65;1.70;;;26.70;46.90;;;;;;4980385;28;20035;-67
2023/07/07 12:34:36;;;;;;;3.88;1.90;;;26.80;46.70;;;;;;4977008;28;20133;-65
2023/07/07 12:37:23;;;;;;;3.47;2.00;;;26.80;46.80;;;;;;4976247;28;20027;-65
2023/07/07 12:40:11;;;;;;;2.95;1.70;;;26.80;46.70;;;;;;4978065;28;20038;-65
2023/07/07 12:42:39;;;;;;;2.35;1.65;;;26.80;46.60;;;;;;4969170;28;20032;-66
2023/07/07 12:45:18;;;;;;;2.30;1.50;;;26.80;46.50;;;;;;4979028;28;20038;-65
2023/07/07 12:47:48;;;;;;;2.33;1.65;;;26.80;46.40;;;;;;4977998;28;20053;-65
2023/07/07 12:50:38;;;;;;;3.47;2.10;;;26.80;46.40;;;;;;4978826;28;20386;-65
2023/07/07 12:53:10;;;;;;;3.95;1.90;;;26.80;46.30;;;;;;4976314;28;20027;-65
2023/07/07 12:55:38;;;;;;;3.85;1.70;;;26.80;46.30;;;;;;4980382;28;20385;-65
2023/07/07 12:58:06;;;;;;;3.63;1.73;;;26.80;46.30;;;;;;4983462;28;20108;-65
2023/07/07 13:00:43;;;;;;;2.95;1.70;;;26.80;46.30;;;;;;4965566;28;20109;-65
2023/07/07 13:03:09;;;;;;;3.17;1.80;;;26.80;46.30;;;;;;4981716;28;20944;-66
2023/07/07 13:05:42;;;;;;;4.30;2.08;;;26.80;46.20;;;;;;4982399;28;20062;-67
2023/07/07 13:08:08;;;;;;;4.30;2.60;;;26.80;46.60;;;;;;4981154;28;20483;-66
2023/07/07 13:10:47;;;;;;;3.83;2.63;;;26.90;47.10;;;;;;4983041;28;20101;-69